Terminal Aerodrome Forecast
Issued by NWS

Home | Current Version | Previous Version | Text Only | Print | Product List | Glossary On
Versions: 1 2 3 4 5 6 7 8 9 10 11 12 13 14 15 16 17 18 19 20 21 22 23 24 25 26 27 28 29 30 31 32
000
FTUS41 KBUF 040305 AAA
TAFJHW
TAF AMD
KJHW 040305Z 0403/0424 35005KT P6SM FEW050 BKN250
     FM040500 VRB03KT P6SM BKN050
     FM041000 VRB03KT P6SM BKN020
     FM041400 VRB03KT P6SM BKN200
     FM041700 32006KT P6SM VCSH BKN040
     FM042000 32007KT P6SM SCT250
      AMD LTD TO CLD VIS AND WIND=

USA.gov is the U.S. government's official web portal to all federal, state and local government web resources and services.